Wingate, Maryland
Current Conditions -  °F | °C
As of 3:52 PM on Friday 24 Oct 2014 (Local Time) from KNHK Reporting Station
Broken Clouds Broken Clouds  
Wind Chill: 65°   Ceiling: 25000
Heat Index: 65°   Visibility: 10mi
Dew Point: 43°   Wind: 13mph
Humidity: 45%   Direction: 280°W
Pressure: 29.88"   Gusts: NA
Location:  38.28°N, 76.08°W
Report Text: KNHK 241952Z 28011KT 10SM FEW150 BKN250 18/06 A2988 RMK AO2 WSHFT 1912 SLP120 T01830061 $
Loading
Personal Weather Stations






























Interactive Weather Map
Tropical Storm Tracking
New forecast layout! Learn more

10-Day Weather Forecast

Advertisements
Track Severe Weather on mobile